Station Historical Data
Daily Summary for February 27, 2017 Units:  Both    English   Metric
« Previous Day
Next Day »
Daily Weekly Monthly Yearly Custom
  High: Low: Average:
Temperature: 46.0 °F /  7.8 °C 32.8 °F /  0.4 °C 39.5 °F /  4.2 °C
Dew Point: 29.1 °F /  -1.6 °C 20.4 °F /  -6.4 °C 25 °F /  -3.9 °C
Humidity: 76% 45% 57%
Wind Speed: 17.0mph /  27.4km/h - 6.1mph /  9.8km/h
Wind Gust: 25.0mph /  40.2km/h - -
Wind- - SW
Pressure: 30.30 in /  1026 hPa 30.12 in /  1019.9 hPa -
Precipitation: 0.00 in /  0 mm    
Historical Graphs
 
 
Tabular Data for February 27, 2017
Time Temperature Dew Point Pressure Wind Wind Speed Wind Gust Humidity Rainfall Rate (Hourly)
00:04 35.6 °F /  2 °C 21.0 °F /  -6.1 °C 30.12in /  1019.9hPa SSW 5.0mph /  8km/h 12.0mph /  19.3km/h 55% 0.00in /  0mm
00:09 35.5 °F /  1.9 °C 20.9 °F /  -6.2 °C 30.12in /  1019.9hPa SSW 5.0mph /  8km/h 12.0mph /  19.3km/h 55% 0.00in /  0mm
00:14 35.4 °F /  1.9 °C 20.8 °F /  -6.2 °C 30.12in /  1019.9hPa SW 5.0mph /  8km/h 10.0mph /  16.1km/h 55% 0.00in /  0mm
00:19 35.5 °F /  1.9 °C 20.9 °F /  -6.2 °C 30.12in /  1019.9hPa WSW 5.0mph /  8km/h 12.0mph /  19.3km/h 55% 0.00in /  0mm
00:24 35.6 °F /  2 °C 21.0 °F /  -6.1 °C 30.12in /  1019.9hPa SW 6.0mph /  9.7km/h 11.0mph /  17.7km/h 55% 0.00in /  0mm
00:29 35.6 °F /  2 °C 21.0 °F /  -6.1 °C 30.12in /  1019.9hPa South 4.0mph /  6.4km/h 11.0mph /  17.7km/h 55% 0.00in /  0mm
00:34 35.8 °F /  2.1 °C 21.2 °F /  -6 °C 30.12in /  1019.9hPa SSW 9.0mph /  14.5km/h 13.0mph /  20.9km/h 55% 0.00in /  0mm
00:39 36.0 °F /  2.2 °C 20.9 °F /  -6.2 °C 30.12in /  1019.9hPa South 8.0mph /  12.9km/h 11.0mph /  17.7km/h 54% 0.00in /  0mm
00:44 36.4 °F /  2.4 °C 21.3 °F /  -5.9 °C 30.12in /  1019.9hPa SW 7.0mph /  11.3km/h 16.0mph /  25.7km/h 54% 0.00in /  0mm
00:49 36.8 °F /  2.7 °C 21.7 °F /  -5.7 °C 30.12in /  1019.9hPa West 11.0mph /  17.7km/h 16.0mph /  25.7km/h 54% 0.00in /  0mm
00:54 37.2 °F /  2.9 °C 21.6 °F /  -5.8 °C 30.12in /  1019.9hPa SW 12.0mph /  19.3km/h 14.0mph /  22.5km/h 53% 0.00in /  0mm
00:59 37.4 °F /  3 °C 21.4 °F /  -5.9 °C 30.13in /  1020.2hPa SW 8.0mph /  12.9km/h 17.0mph /  27.4km/h 52% 0.00in /  0mm
01:04 37.4 °F /  3 °C 21.4 °F /  -5.9 °C 30.13in /  1020.2hPa SW 9.0mph /  14.5km/h 17.0mph /  27.4km/h 52% 0.00in /  0mm
01:09 37.4 °F /  3 °C 21.4 °F /  -5.9 °C 30.13in /  1020.2hPa SW 8.0mph /  12.9km/h 19.0mph /  30.6km/h 52% 0.00in /  0mm
01:14 37.4 °F /  3 °C 21.4 °F /  -5.9 °C 30.13in /  1020.2hPa SW 8.0mph /  12.9km/h 19.0mph /  30.6km/h 52% 0.00in /  0mm
01:19 37.4 °F /  3 °C 21.4 °F /  -5.9 °C 30.13in /  1020.2hPa SW 8.0mph /  12.9km/h 16.0mph /  25.7km/h 52% 0.00in /  0mm
01:24 37.5 °F /  3.1 °C 21.5 °F /  -5.8 °C 30.13in /  1020.2hPa South 7.0mph /  11.3km/h 14.0mph /  22.5km/h 52% 0.00in /  0mm
01:29 37.7 °F /  3.2 °C 21.6 °F /  -5.8 °C 30.13in /  1020.2hPa SW 9.0mph /  14.5km/h 18.0mph /  29km/h 52% 0.00in /  0mm
01:34 37.6 °F /  3.1 °C 21.5 °F /  -5.8 °C 30.14in /  1020.5hPa SW 5.0mph /  8km/h 16.0mph /  25.7km/h 52% 0.00in /  0mm
01:39 37.7 °F /  3.2 °C 21.6 °F /  -5.8 °C 30.13in /  1020.2hPa WSW 10.0mph /  16.1km/h 15.0mph /  24.1km/h 52% 0.00in /  0mm
01:44 37.9 °F /  3.3 °C 21.8 °F /  -5.7 °C 30.13in /  1020.2hPa SW 7.0mph /  11.3km/h 22.0mph /  35.4km/h 52% 0.00in /  0mm
01:49 38.0 °F /  3.3 °C 21.5 °F /  -5.8 °C 30.14in /  1020.5hPa SW 11.0mph /  17.7km/h 18.0mph /  29km/h 51% 0.00in /  0mm
01:54 38.1 °F /  3.4 °C 21.5 °F /  -5.8 °C 30.14in /  1020.5hPa South 6.0mph /  9.7km/h 16.0mph /  25.7km/h 51% 0.00in /  0mm
01:59 38.1 °F /  3.4 °C 21.5 °F /  -5.8 °C 30.14in /  1020.5hPa SW 5.0mph /  8km/h 16.0mph /  25.7km/h 51% 0.00in /  0mm
02:04 38.1 °F /  3.4 °C 21.1 °F /  -6.1 °C 30.14in /  1020.5hPa SW 9.0mph /  14.5km/h 19.0mph /  30.6km/h 50% 0.00in /  0mm
02:09 38.3 °F /  3.5 °C 21.7 °F /  -5.7 °C 30.14in /  1020.5hPa WSW 11.0mph /  17.7km/h 16.0mph /  25.7km/h 51% 0.00in /  0mm
02:14 38.3 °F /  3.5 °C 21.7 °F /  -5.7 °C 30.14in /  1020.5hPa SW 9.0mph /  14.5km/h 17.0mph /  27.4km/h 51% 0.00in /  0mm
02:19 38.3 °F /  3.5 °C 22.2 °F /  -5.4 °C 30.14in /  1020.5hPa SW 10.0mph /  16.1km/h 18.0mph /  29km/h 52% 0.00in /  0mm
02:24 38.3 °F /  3.5 °C 22.2 °F /  -5.4 °C 30.14in /  1020.5hPa SW 10.0mph /  16.1km/h 18.0mph /  29km/h 52% 0.00in /  0mm
02:29 38.3 °F /  3.5 °C 22.2 °F /  -5.4 °C 30.14in /  1020.5hPa SW 9.0mph /  14.5km/h 17.0mph /  27.4km/h 52% 0.00in /  0mm
02:34 38.2 °F /  3.4 °C 22.1 °F /  -5.5 °C 30.14in /  1020.5hPa WSW 6.0mph /  9.7km/h 15.0mph /  24.1km/h 52% 0.00in /  0mm
02:39 38.3 °F /  3.5 °C 22.2 °F /  -5.4 °C 30.14in /  1020.5hPa SW 13.0mph /  20.9km/h 20.0mph /  32.2km/h 52% 0.00in /  0mm
02:44 38.3 °F /  3.5 °C 22.2 °F /  -5.4 °C 30.14in /  1020.5hPa South 12.0mph /  19.3km/h 20.0mph /  32.2km/h 52% 0.00in /  0mm
02:49 38.4 °F /  3.6 °C 21.8 °F /  -5.7 °C 30.14in /  1020.5hPa West 7.0mph /  11.3km/h 14.0mph /  22.5km/h 51% 0.00in /  0mm
02:54 38.4 °F /  3.6 °C 21.8 °F /  -5.7 °C 30.14in /  1020.5hPa WSW 13.0mph /  20.9km/h 16.0mph /  25.7km/h 51% 0.00in /  0mm
02:59 38.3 °F /  3.5 °C 22.2 °F /  -5.4 °C 30.14in /  1020.5hPa SW 7.0mph /  11.3km/h 15.0mph /  24.1km/h 52% 0.00in /  0mm
03:04 38.3 °F /  3.5 °C 21.7 °F /  -5.7 °C 30.14in /  1020.5hPa SW 10.0mph /  16.1km/h 19.0mph /  30.6km/h 51% 0.00in /  0mm
03:09 38.4 °F /  3.6 °C 21.8 °F /  -5.7 °C 30.14in /  1020.5hPa SW 10.0mph /  16.1km/h 19.0mph /  30.6km/h 51% 0.00in /  0mm
03:14 38.4 °F /  3.6 °C 21.8 °F /  -5.7 °C 30.14in /  1020.5hPa SW 10.0mph /  16.1km/h 18.0mph /  29km/h 51% 0.00in /  0mm
03:19 38.4 °F /  3.6 °C 21.8 °F /  -5.7 °C 30.14in /  1020.5hPa SW 9.0mph /  14.5km/h 16.0mph /  25.7km/h 51% 0.00in /  0mm
03:24 38.4 °F /  3.6 °C 21.4 °F /  -5.9 °C 30.14in /  1020.5hPa SW 9.0mph /  14.5km/h 18.0mph /  29km/h 50% 0.00in /  0mm
03:29 38.4 °F /  3.6 °C 21.8 °F /  -5.7 °C 30.14in /  1020.5hPa SW 8.0mph /  12.9km/h 18.0mph /  29km/h 51% 0.00in /  0mm
03:34 38.4 °F /  3.6 °C 21.8 °F /  -5.7 °C 30.14in /  1020.5hPa SW 9.0mph /  14.5km/h 17.0mph /  27.4km/h 51% 0.00in /  0mm
03:39 38.4 °F /  3.6 °C 21.8 °F /  -5.7 °C 30.15in /  1020.9hPa SW 9.0mph /  14.5km/h 17.0mph /  27.4km/h 51% 0.00in /  0mm
03:44 38.4 °F /  3.6 °C 21.8 °F /  -5.7 °C 30.15in /  1020.9hPa SSW 5.0mph /  8km/h 14.0mph /  22.5km/h 51% 0.00in /  0mm
03:49 38.4 °F /  3.6 °C 22.3 °F /  -5.4 °C 30.15in /  1020.9hPa SSW 3.0mph /  4.8km/h 18.0mph /  29km/h 52% 0.00in /  0mm
03:54 38.2 °F /  3.4 °C 22.6 °F /  -5.2 °C 30.15in /  1020.9hPa SW 12.0mph /  19.3km/h 16.0mph /  25.7km/h 53% 0.00in /  0mm
03:59 38.1 °F /  3.4 °C 22.9 °F /  -5.1 °C 30.15in /  1020.9hPa WSW 6.0mph /  9.7km/h 17.0mph /  27.4km/h 54% 0.00in /  0mm
04:04 38.3 °F /  3.5 °C 23.1 °F /  -4.9 °C 30.15in /  1020.9hPa WSW 8.0mph /  12.9km/h 17.0mph /  27.4km/h 54% 0.00in /  0mm
04:09 38.4 °F /  3.6 °C 22.7 °F /  -5.2 °C 30.15in /  1020.9hPa SSW 8.0mph /  12.9km/h 18.0mph /  29km/h 53% 0.00in /  0mm
04:14 38.5 °F /  3.6 °C 23.3 °F /  -4.8 °C 30.15in /  1020.9hPa SW 10.0mph /  16.1km/h 19.0mph /  30.6km/h 54% 0.00in /  0mm
04:19 38.5 °F /  3.6 °C 23.3 °F /  -4.8 °C 30.15in /  1020.9hPa SW 11.0mph /  17.7km/h 19.0mph /  30.6km/h 54% 0.00in /  0mm
04:24 38.5 °F /  3.6 °C 23.3 °F /  -4.8 °C 30.15in /  1020.9hPa SW 6.0mph /  9.7km/h 18.0mph /  29km/h 54% 0.00in /  0mm
04:29 38.5 °F /  3.6 °C 23.3 °F /  -4.8 °C 30.15in /  1020.9hPa SW 9.0mph /  14.5km/h 18.0mph /  29km/h 54% 0.00in /  0mm
04:34 38.5 °F /  3.6 °C 23.3 °F /  -4.8 °C 30.15in /  1020.9hPa WSW 7.0mph /  11.3km/h 20.0mph /  32.2km/h 54% 0.00in /  0mm
04:39 38.5 °F /  3.6 °C 22.8 °F /  -5.1 °C 30.15in /  1020.9hPa WSW 10.0mph /  16.1km/h 20.0mph /  32.2km/h 53% 0.00in /  0mm
04:44 38.5 °F /  3.6 °C 22.8 °F /  -5.1 °C 30.15in /  1020.9hPa WSW 6.0mph /  9.7km/h 18.0mph /  29km/h 53% 0.00in /  0mm
04:49 38.4 °F /  3.6 °C 22.3 °F /  -5.4 °C 30.16in /  1021.2hPa WSW 8.0mph /  12.9km/h 14.0mph /  22.5km/h 52% 0.00in /  0mm
04:54 38.5 °F /  3.6 °C 21.9 °F /  -5.6 °C 30.16in /  1021.2hPa WSW 4.0mph /  6.4km/h 17.0mph /  27.4km/h 51% 0.00in /  0mm
04:59 38.6 °F /  3.7 °C 22.0 °F /  -5.6 °C 30.16in /  1021.2hPa West 10.0mph /  16.1km/h 19.0mph /  30.6km/h 51% 0.00in /  0mm
05:04 38.4 °F /  3.6 °C 21.8 °F /  -5.7 °C 30.16in /  1021.2hPa West 6.0mph /  9.7km/h 12.0mph /  19.3km/h 51% 0.00in /  0mm
05:09 38.2 °F /  3.4 °C 21.6 °F /  -5.8 °C 30.16in /  1021.2hPa South 5.0mph /  8km/h 12.0mph /  19.3km/h 51% 0.00in /  0mm
05:14 37.7 °F /  3.2 °C 21.2 °F /  -6 °C 30.16in /  1021.2hPa SW 6.0mph /  9.7km/h 13.0mph /  20.9km/h 51% 0.00in /  0mm
05:19 37.5 °F /  3.1 °C 21.0 °F /  -6.1 °C 30.16in /  1021.2hPa SW 6.0mph /  9.7km/h 14.0mph /  22.5km/h 51% 0.00in /  0mm
05:24 37.4 °F /  3 °C 20.4 °F /  -6.4 °C 30.16in /  1021.2hPa SW 7.0mph /  11.3km/h 15.0mph /  24.1km/h 50% 0.00in /  0mm
05:29 37.5 °F /  3.1 °C 21.0 °F /  -6.1 °C 30.16in /  1021.2hPa SW 8.0mph /  12.9km/h 17.0mph /  27.4km/h 51% 0.00in /  0mm
05:34 37.8 °F /  3.2 °C 21.3 °F /  -5.9 °C 30.17in /  1021.6hPa SW 9.0mph /  14.5km/h 15.0mph /  24.1km/h 51% 0.00in /  0mm
05:39 37.9 °F /  3.3 °C 20.9 °F /  -6.2 °C 30.17in /  1021.6hPa SSW 4.0mph /  6.4km/h 18.0mph /  29km/h 50% 0.00in /  0mm
05:44 37.9 °F /  3.3 °C 21.4 °F /  -5.9 °C 30.17in /  1021.6hPa SW 9.0mph /  14.5km/h 18.0mph /  29km/h 51% 0.00in /  0mm
05:49 38.0 °F /  3.3 °C 21.5 °F /  -5.8 °C 30.17in /  1021.6hPa SW 8.0mph /  12.9km/h 16.0mph /  25.7km/h 51% 0.00in /  0mm
05:54 38.0 °F /  3.3 °C 21.0 °F /  -6.1 °C 30.17in /  1021.6hPa SSW 17.0mph /  27.4km/h 17.0mph /  27.4km/h 50% 0.00in /  0mm
05:59 38.0 °F /  3.3 °C 21.5 °F /  -5.8 °C 30.18in /  1021.9hPa WSW 7.0mph /  11.3km/h 14.0mph /  22.5km/h 51% 0.00in /  0mm
06:04 38.2 °F /  3.4 °C 21.6 °F /  -5.8 °C 30.18in /  1021.9hPa West 9.0mph /  14.5km/h 15.0mph /  24.1km/h 51% 0.00in /  0mm
06:09 38.3 °F /  3.5 °C 21.7 °F /  -5.7 °C 30.18in /  1021.9hPa South 10.0mph /  16.1km/h 18.0mph /  29km/h 51% 0.00in /  0mm
06:14 38.4 °F /  3.6 °C 21.8 °F /  -5.7 °C 30.18in /  1021.9hPa SW 9.0mph /  14.5km/h 18.0mph /  29km/h 51% 0.00in /  0mm
06:19 38.4 °F /  3.6 °C 21.8 °F /  -5.7 °C 30.19in /  1022.2hPa SW 9.0mph /  14.5km/h 19.0mph /  30.6km/h 51% 0.00in /  0mm
06:24 38.3 °F /  3.5 °C 21.7 °F /  -5.7 °C 30.18in /  1021.9hPa SW 9.0mph /  14.5km/h 19.0mph /  30.6km/h 51% 0.00in /  0mm
06:29 38.4 °F /  3.6 °C 21.8 °F /  -5.7 °C 30.19in /  1022.2hPa SW 7.0mph /  11.3km/h 16.0mph /  25.7km/h 51% 0.00in /  0mm
06:34 38.2 °F /  3.4 °C 22.1 °F /  -5.5 °C 30.19in /  1022.2hPa WSW 6.0mph /  9.7km/h 17.0mph /  27.4km/h 52% 0.00in /  0mm
06:39 37.9 °F /  3.3 °C 22.3 °F /  -5.4 °C 30.20in /  1022.6hPa WSW 6.0mph /  9.7km/h 16.0mph /  25.7km/h 53% 0.00in /  0mm
06:44 37.9 °F /  3.3 °C 22.3 °F /  -5.4 °C 30.20in /  1022.6hPa SW 8.0mph /  12.9km/h 16.0mph /  25.7km/h 53% 0.00in /  0mm
06:49 38.1 °F /  3.4 °C 22.9 °F /  -5.1 °C 30.20in /  1022.6hPa SW 8.0mph /  12.9km/h 16.0mph /  25.7km/h 54% 0.00in /  0mm
06:54 38.4 °F /  3.6 °C 22.7 °F /  -5.2 °C 30.20in /  1022.6hPa SW 9.0mph /  14.5km/h 18.0mph /  29km/h 53% 0.00in /  0mm
06:59 38.6 °F /  3.7 °C 22.9 °F /  -5.1 °C 30.21in /  1022.9hPa SW 9.0mph /  14.5km/h 20.0mph /  32.2km/h 53% 0.00in /  0mm
07:04 38.5 °F /  3.6 °C 22.8 °F /  -5.1 °C 30.21in /  1022.9hPa SE 6.0mph /  9.7km/h 17.0mph /  27.4km/h 53% 0.00in /  0mm
07:09 38.4 °F /  3.6 °C 22.7 °F /  -5.2 °C 30.21in /  1022.9hPa South 5.0mph /  8km/h 16.0mph /  25.7km/h 53% 0.00in /  0mm
07:14 38.3 °F /  3.5 °C 22.6 °F /  -5.2 °C 30.22in /  1023.2hPa SW 9.0mph /  14.5km/h 12.0mph /  19.3km/h 53% 0.00in /  0mm
07:19 38.2 °F /  3.4 °C 22.6 °F /  -5.2 °C 30.22in /  1023.2hPa SW 8.0mph /  12.9km/h 16.0mph /  25.7km/h 53% 0.00in /  0mm
07:24 38.0 °F /  3.3 °C 22.4 °F /  -5.3 °C 30.22in /  1023.2hPa SW 7.0mph /  11.3km/h 16.0mph /  25.7km/h 53% 0.00in /  0mm
07:29 37.8 °F /  3.2 °C 22.2 °F /  -5.4 °C 30.22in /  1023.2hPa SW 7.0mph /  11.3km/h 14.0mph /  22.5km/h 53% 0.00in /  0mm
07:34 37.6 °F /  3.1 °C 22.0 °F /  -5.6 °C 30.22in /  1023.2hPa WSW 5.0mph /  8km/h 11.0mph /  17.7km/h 53% 0.00in /  0mm
07:39 37.3 °F /  2.9 °C 22.2 °F /  -5.4 °C 30.22in /  1023.2hPa SW 11.0mph /  17.7km/h 12.0mph /  19.3km/h 54% 0.00in /  0mm
07:44 37.3 °F /  2.9 °C 21.7 °F /  -5.7 °C 30.22in /  1023.2hPa SW 5.0mph /  8km/h 11.0mph /  17.7km/h 53% 0.00in /  0mm
07:49 37.0 °F /  2.8 °C 21.9 °F /  -5.6 °C 30.22in /  1023.2hPa SW 6.0mph /  9.7km/h 11.0mph /  17.7km/h 54% 0.00in /  0mm
07:54 37.2 °F /  2.9 °C 22.1 °F /  -5.5 °C 30.23in /  1023.6hPa SW 5.0mph /  8km/h 11.0mph /  17.7km/h 54% 0.00in /  0mm
07:59 37.5 °F /  3.1 °C 22.3 °F /  -5.4 °C 30.23in /  1023.6hPa SW 6.0mph /  9.7km/h 11.0mph /  17.7km/h 54% 0.00in /  0mm
08:04 38.0 °F /  3.3 °C 22.8 °F /  -5.1 °C 30.23in /  1023.6hPa SW 6.0mph /  9.7km/h 10.0mph /  16.1km/h 54% 0.00in /  0mm
08:09 38.4 °F /  3.6 °C 23.2 °F /  -4.9 °C 30.23in /  1023.6hPa WSW 5.0mph /  8km/h 10.0mph /  16.1km/h 54% 0.00in /  0mm
08:14 38.8 °F /  3.8 °C 22.7 °F /  -5.2 °C 30.22in /  1023.2hPa SSW 5.0mph /  8km/h 20.0mph /  32.2km/h 52% 0.00in /  0mm
08:19 39.3 °F /  4.1 °C 23.1 °F /  -4.9 °C 30.23in /  1023.6hPa WSW 11.0mph /  17.7km/h 13.0mph /  20.9km/h 52% 0.00in /  0mm
08:24 39.8 °F /  4.3 °C 23.6 °F /  -4.7 °C 30.23in /  1023.6hPa SW 7.0mph /  11.3km/h 13.0mph /  20.9km/h 52% 0.00in /  0mm
08:29 40.3 °F /  4.6 °C 23.6 °F /  -4.7 °C 30.23in /  1023.6hPa SW 7.0mph /  11.3km/h 14.0mph /  22.5km/h 51% 0.00in /  0mm
08:34 40.7 °F /  4.8 °C 24.0 °F /  -4.4 °C 30.23in /  1023.6hPa SW 9.0mph /  14.5km/h 13.0mph /  20.9km/h 51% 0.00in /  0mm
08:39 41.1 °F /  5.1 °C 23.9 °F /  -4.5 °C 30.23in /  1023.6hPa SW 11.0mph /  17.7km/h 19.0mph /  30.6km/h 50% 0.00in /  0mm
08:44 41.5 °F /  5.3 °C 23.7 °F /  -4.6 °C 30.23in /  1023.6hPa SW 10.0mph /  16.1km/h 16.0mph /  25.7km/h 49% 0.00in /  0mm
08:49 41.7 °F /  5.4 °C 23.9 °F /  -4.5 °C 30.23in /  1023.6hPa SW 9.0mph /  14.5km/h 19.0mph /  30.6km/h 49% 0.00in /  0mm
08:54 41.8 °F /  5.4 °C 24.0 °F /  -4.4 °C 30.23in /  1023.6hPa SW 10.0mph /  16.1km/h 19.0mph /  30.6km/h 49% 0.00in /  0mm
08:59 41.9 °F /  5.5 °C 24.1 °F /  -4.4 °C 30.23in /  1023.6hPa WSW 9.0mph /  14.5km/h 19.0mph /  30.6km/h 49% 0.00in /  0mm
09:04 41.9 °F /  5.5 °C 24.6 °F /  -4.1 °C 30.24in /  1023.9hPa WSW 10.0mph /  16.1km/h 20.0mph /  32.2km/h 50% 0.00in /  0mm
09:09 42.2 °F /  5.7 °C 24.4 °F /  -4.2 °C 30.24in /  1023.9hPa WSW 9.0mph /  14.5km/h 20.0mph /  32.2km/h 49% 0.00in /  0mm
09:14 42.1 °F /  5.6 °C 23.8 °F /  -4.6 °C 30.24in /  1023.9hPa NW 8.0mph /  12.9km/h 19.0mph /  30.6km/h 48% 0.00in /  0mm
09:19 42.3 °F /  5.7 °C 24.5 °F /  -4.2 °C 30.24in /  1023.9hPa West 11.0mph /  17.7km/h 18.0mph /  29km/h 49% 0.00in /  0mm
09:24 42.5 °F /  5.8 °C 24.2 °F /  -4.3 °C 30.24in /  1023.9hPa WSW 10.0mph /  16.1km/h 18.0mph /  29km/h 48% 0.00in /  0mm
09:29 42.6 °F /  5.9 °C 24.3 °F /  -4.3 °C 30.24in /  1023.9hPa WSW 9.0mph /  14.5km/h 19.0mph /  30.6km/h 48% 0.00in /  0mm
09:34 42.5 °F /  5.8 °C 24.2 °F /  -4.3 °C 30.24in /  1023.9hPa WSW 10.0mph /  16.1km/h 19.0mph /  30.6km/h 48% 0.00in /  0mm
09:39 42.5 °F /  5.8 °C 24.2 °F /  -4.3 °C 30.24in /  1023.9hPa WSW 11.0mph /  17.7km/h 19.0mph /  30.6km/h 48% 0.00in /  0mm
09:44 42.7 °F /  5.9 °C 24.4 °F /  -4.2 °C 30.25in /  1024.3hPa NW 10.0mph /  16.1km/h 22.0mph /  35.4km/h 48% 0.00in /  0mm
09:49 42.9 °F /  6.1 °C 24.5 °F /  -4.2 °C 30.25in /  1024.3hPa SW 16.0mph /  25.7km/h 21.0mph /  33.8km/h 48% 0.00in /  0mm
09:54 43.2 °F /  6.2 °C 24.8 °F /  -4 °C 30.25in /  1024.3hPa WSW 5.0mph /  8km/h 20.0mph /  32.2km/h 48% 0.00in /  0mm
09:59 43.2 °F /  6.2 °C 23.8 °F /  -4.6 °C 30.25in /  1024.3hPa WSW 10.0mph /  16.1km/h 20.0mph /  32.2km/h 46% 0.00in /  0mm
10:04 43.3 °F /  6.3 °C 24.4 °F /  -4.2 °C 30.25in /  1024.3hPa WSW 11.0mph /  17.7km/h 19.0mph /  30.6km/h 47% 0.00in /  0mm
10:09 43.3 °F /  6.3 °C 23.9 °F /  -4.5 °C 30.25in /  1024.3hPa SW 7.0mph /  11.3km/h 18.0mph /  29km/h 46% 0.00in /  0mm
10:14 44.0 °F /  6.7 °C 24.5 °F /  -4.2 °C 30.26in /  1024.6hPa SW 10.0mph /  16.1km/h 16.0mph /  25.7km/h 46% 0.00in /  0mm
10:19 44.2 °F /  6.8 °C 24.2 °F /  -4.3 °C 30.26in /  1024.6hPa SW 8.0mph /  12.9km/h 17.0mph /  27.4km/h 45% 0.00in /  0mm
10:24 44.5 °F /  6.9 °C 25.0 °F /  -3.9 °C 30.26in /  1024.6hPa WSW 6.0mph /  9.7km/h 18.0mph /  29km/h 46% 0.00in /  0mm
10:29 44.1 °F /  6.7 °C 24.6 °F /  -4.1 °C 30.26in /  1024.6hPa WSW 9.0mph /  14.5km/h 24.0mph /  38.6km/h 46% 0.00in /  0mm
10:34 44.2 °F /  6.8 °C 25.2 °F /  -3.8 °C 30.27in /  1024.9hPa WSW 10.0mph /  16.1km/h 24.0mph /  38.6km/h 47% 0.00in /  0mm
10:39 44.8 °F /  7.1 °C 24.7 °F /  -4.1 °C 30.27in /  1024.9hPa WSW 10.0mph /  16.1km/h 20.0mph /  32.2km/h 45% 0.00in /  0mm
10:44 44.2 °F /  6.8 °C 24.7 °F /  -4.1 °C 30.27in /  1024.9hPa WSW 10.0mph /  16.1km/h 20.0mph /  32.2km/h 46% 0.00in /  0mm
10:49 44.6 °F /  7 °C 25.6 °F /  -3.6 °C 30.27in /  1024.9hPa SW 13.0mph /  20.9km/h 21.0mph /  33.8km/h 47% 0.00in /  0mm
10:54 44.9 °F /  7.2 °C 25.9 °F /  -3.4 °C 30.27in /  1024.9hPa SW 12.0mph /  19.3km/h 19.0mph /  30.6km/h 47% 0.00in /  0mm
10:59 44.6 °F /  7 °C 25.1 °F /  -3.8 °C 30.27in /  1024.9hPa WSW 9.0mph /  14.5km/h 19.0mph /  30.6km/h 46% 0.00in /  0mm
11:04 44.6 °F /  7 °C 25.6 °F /  -3.6 °C 30.27in /  1024.9hPa WSW 10.0mph /  16.1km/h 19.0mph /  30.6km/h 47% 0.00in /  0mm
11:09 44.6 °F /  7 °C 25.6 °F /  -3.6 °C 30.27in /  1024.9hPa WSW 10.0mph /  16.1km/h 19.0mph /  30.6km/h 47% 0.00in /  0mm
11:14 44.3 °F /  6.8 °C 25.3 °F /  -3.7 °C 30.27in /  1024.9hPa South 10.0mph /  16.1km/h 21.0mph /  33.8km/h 47% 0.00in /  0mm
11:19 44.5 °F /  6.9 °C 25.5 °F /  -3.6 °C 30.27in /  1024.9hPa SW 13.0mph /  20.9km/h 20.0mph /  32.2km/h 47% 0.00in /  0mm
11:24 44.3 °F /  6.8 °C 26.3 °F /  -3.2 °C 30.27in /  1024.9hPa WSW 8.0mph /  12.9km/h 21.0mph /  33.8km/h 49% 0.00in /  0mm
11:29 44.8 °F /  7.1 °C 25.8 °F /  -3.4 °C 30.27in /  1024.9hPa WSW 11.0mph /  17.7km/h 20.0mph /  32.2km/h 47% 0.00in /  0mm
11:34 44.5 °F /  6.9 °C 26.0 °F /  -3.3 °C 30.28in /  1025.3hPa SW 11.0mph /  17.7km/h 20.0mph /  32.2km/h 48% 0.00in /  0mm
11:39 44.4 °F /  6.9 °C 25.9 °F /  -3.4 °C 30.28in /  1025.3hPa SW 11.0mph /  17.7km/h 20.0mph /  32.2km/h 48% 0.00in /  0mm
11:44 44.9 °F /  7.2 °C 26.9 °F /  -2.8 °C 30.28in /  1025.3hPa SW 7.0mph /  11.3km/h 17.0mph /  27.4km/h 49% 0.00in /  0mm
11:49 44.9 °F /  7.2 °C 25.9 °F /  -3.4 °C 30.28in /  1025.3hPa WSW 14.0mph /  22.5km/h 24.0mph /  38.6km/h 47% 0.00in /  0mm
11:54 44.7 °F /  7.1 °C 26.2 °F /  -3.2 °C 30.28in /  1025.3hPa WSW 9.0mph /  14.5km/h 20.0mph /  32.2km/h 48% 0.00in /  0mm
11:59 44.6 °F /  7 °C 25.6 °F /  -3.6 °C 30.28in /  1025.3hPa WSW 16.0mph /  25.7km/h 20.0mph /  32.2km/h 47% 0.00in /  0mm
12:04 44.4 °F /  6.9 °C 25.9 °F /  -3.4 °C 30.28in /  1025.3hPa WSW 5.0mph /  8km/h 20.0mph /  32.2km/h 48% 0.00in /  0mm
12:09 44.7 °F /  7.1 °C 25.7 °F /  -3.5 °C 30.28in /  1025.3hPa WSW 11.0mph /  17.7km/h 25.0mph /  40.2km/h 47% 0.00in /  0mm
12:14 45.3 °F /  7.4 °C 27.2 °F /  -2.7 °C 30.27in /  1024.9hPa WSW 11.0mph /  17.7km/h 25.0mph /  40.2km/h 49% 0.00in /  0mm
12:19 45.1 °F /  7.3 °C 26.1 °F /  -3.3 °C 30.27in /  1024.9hPa WSW 15.0mph /  24.1km/h 22.0mph /  35.4km/h 47% 0.00in /  0mm
12:24 44.9 °F /  7.2 °C 25.9 °F /  -3.4 °C 30.27in /  1024.9hPa SW 9.0mph /  14.5km/h 20.0mph /  32.2km/h 47% 0.00in /  0mm
12:29 44.8 °F /  7.1 °C 25.8 °F /  -3.4 °C 30.27in /  1024.9hPa WSW 12.0mph /  19.3km/h 18.0mph /  29km/h 47% 0.00in /  0mm
12:34 45.2 °F /  7.3 °C 26.1 °F /  -3.3 °C 30.27in /  1024.9hPa SW 11.0mph /  17.7km/h 21.0mph /  33.8km/h 47% 0.00in /  0mm
12:39 45.4 °F /  7.4 °C 26.3 °F /  -3.2 °C 30.27in /  1024.9hPa SW 11.0mph /  17.7km/h 21.0mph /  33.8km/h 47% 0.00in /  0mm
12:44 45.2 °F /  7.3 °C 25.6 °F /  -3.6 °C 30.27in /  1024.9hPa NW 11.0mph /  17.7km/h 20.0mph /  32.2km/h 46% 0.00in /  0mm
12:49 45.2 °F /  7.3 °C 26.1 °F /  -3.3 °C 30.27in /  1024.9hPa WSW 6.0mph /  9.7km/h 20.0mph /  32.2km/h 47% 0.00in /  0mm
12:54 45.1 °F /  7.3 °C 26.6 °F /  -3 °C 30.27in /  1024.9hPa SW 9.0mph /  14.5km/h 19.0mph /  30.6km/h 48% 0.00in /  0mm
12:59 45.7 °F /  7.6 °C 27.1 °F /  -2.7 °C 30.26in /  1024.6hPa SW 14.0mph /  22.5km/h 16.0mph /  25.7km/h 48% 0.00in /  0mm
13:04 45.7 °F /  7.6 °C 27.6 °F /  -2.4 °C 30.26in /  1024.6hPa SW 8.0mph /  12.9km/h 18.0mph /  29km/h 49% 0.00in /  0mm
13:09 45.6 °F /  7.6 °C 26.0 °F /  -3.3 °C 30.26in /  1024.6hPa WSW 9.0mph /  14.5km/h 20.0mph /  32.2km/h 46% 0.00in /  0mm
13:14 45.2 °F /  7.3 °C 26.1 °F /  -3.3 °C 30.26in /  1024.6hPa WSW 9.0mph /  14.5km/h 20.0mph /  32.2km/h 47% 0.00in /  0mm
13:19 45.0 °F /  7.2 °C 26.0 °F /  -3.3 °C 30.26in /  1024.6hPa WSW 11.0mph /  17.7km/h 22.0mph /  35.4km/h 47% 0.00in /  0mm
13:24 45.5 °F /  7.5 °C 26.4 °F /  -3.1 °C 30.26in /  1024.6hPa WSW 10.0mph /  16.1km/h 22.0mph /  35.4km/h 47% 0.00in /  0mm
13:29 45.2 °F /  7.3 °C 25.6 °F /  -3.6 °C 30.25in /  1024.3hPa WSW 9.0mph /  14.5km/h 17.0mph /  27.4km/h 46% 0.00in /  0mm
13:34 44.9 °F /  7.2 °C 25.9 °F /  -3.4 °C 30.26in /  1024.6hPa WSW 10.0mph /  16.1km/h 19.0mph /  30.6km/h 47% 0.00in /  0mm
13:39 45.7 °F /  7.6 °C 26.6 °F /  -3 °C 30.25in /  1024.3hPa SW 7.0mph /  11.3km/h 15.0mph /  24.1km/h 47% 0.00in /  0mm
13:44 45.2 °F /  7.3 °C 26.7 °F /  -2.9 °C 30.25in /  1024.3hPa SW 9.0mph /  14.5km/h 17.0mph /  27.4km/h 48% 0.00in /  0mm
13:49 45.1 °F /  7.3 °C 26.6 °F /  -3 °C 30.25in /  1024.3hPa WSW 9.0mph /  14.5km/h 17.0mph /  27.4km/h 48% 0.00in /  0mm
13:54 45.2 °F /  7.3 °C 27.2 °F /  -2.7 °C 30.25in /  1024.3hPa SW 6.0mph /  9.7km/h 15.0mph /  24.1km/h 49% 0.00in /  0mm
13:59 45.6 °F /  7.6 °C 27.5 °F /  -2.5 °C 30.25in /  1024.3hPa West 6.0mph /  9.7km/h 13.0mph /  20.9km/h 49% 0.00in /  0mm
14:04 45.7 °F /  7.6 °C 27.1 °F /  -2.7 °C 30.25in /  1024.3hPa WNW 4.0mph /  6.4km/h 14.0mph /  22.5km/h 48% 0.00in /  0mm
14:09 45.8 °F /  7.7 °C 27.7 °F /  -2.4 °C 30.25in /  1024.3hPa SW 7.0mph /  11.3km/h 15.0mph /  24.1km/h 49% 0.00in /  0mm
14:14 45.7 °F /  7.6 °C 27.1 °F /  -2.7 °C 30.25in /  1024.3hPa SW 7.0mph /  11.3km/h 14.0mph /  22.5km/h 48% 0.00in /  0mm
14:19 45.4 °F /  7.4 °C 27.8 °F /  -2.3 °C 30.25in /  1024.3hPa WSW 8.0mph /  12.9km/h 14.0mph /  22.5km/h 50% 0.00in /  0mm
14:24 46.0 °F /  7.8 °C 28.4 °F /  -2 °C 30.25in /  1024.3hPa WSW 8.0mph /  12.9km/h 14.0mph /  22.5km/h 50% 0.00in /  0mm
14:29 45.5 °F /  7.5 °C 27.9 °F /  -2.3 °C 30.25in /  1024.3hPa WSW 8.0mph /  12.9km/h 14.0mph /  22.5km/h 50% 0.00in /  0mm
14:34 45.1 °F /  7.3 °C 27.1 °F /  -2.7 °C 30.25in /  1024.3hPa WSW 9.0mph /  14.5km/h 19.0mph /  30.6km/h 49% 0.00in /  0mm
14:39 44.9 °F /  7.2 °C 27.4 °F /  -2.6 °C 30.25in /  1024.3hPa WSW 10.0mph /  16.1km/h 19.0mph /  30.6km/h 50% 0.00in /  0mm
14:44 45.1 °F /  7.3 °C 27.6 °F /  -2.4 °C 30.25in /  1024.3hPa WSW 9.0mph /  14.5km/h 17.0mph /  27.4km/h 50% 0.00in /  0mm
14:49 45.5 °F /  7.5 °C 27.9 °F /  -2.3 °C 30.26in /  1024.6hPa SW 5.0mph /  8km/h 12.0mph /  19.3km/h 50% 0.00in /  0mm
14:54 45.3 °F /  7.4 °C 27.2 °F /  -2.7 °C 30.26in /  1024.6hPa SW 11.0mph /  17.7km/h 17.0mph /  27.4km/h 49% 0.00in /  0mm
14:59 45.0 °F /  7.2 °C 26.5 °F /  -3.1 °C 30.26in /  1024.6hPa SSW 9.0mph /  14.5km/h 17.0mph /  27.4km/h 48% 0.00in /  0mm
15:04 45.2 °F /  7.3 °C 28.1 °F /  -2.2 °C 30.26in /  1024.6hPa SSW 6.0mph /  9.7km/h 18.0mph /  29km/h 51% 0.00in /  0mm
15:09 44.2 °F /  6.8 °C 27.7 °F /  -2.4 °C 30.26in /  1024.6hPa WSW 5.0mph /  8km/h 16.0mph /  25.7km/h 52% 0.00in /  0mm
15:14 44.5 °F /  6.9 °C 28.0 °F /  -2.2 °C 30.26in /  1024.6hPa SW 9.0mph /  14.5km/h 16.0mph /  25.7km/h 52% 0.00in /  0mm
15:19 45.1 °F /  7.3 °C 29.0 °F /  -1.7 °C 30.26in /  1024.6hPa SW 7.0mph /  11.3km/h 14.0mph /  22.5km/h 53% 0.00in /  0mm
15:24 44.9 °F /  7.2 °C 28.8 °F /  -1.8 °C 30.26in /  1024.6hPa SW 7.0mph /  11.3km/h 14.0mph /  22.5km/h 53% 0.00in /  0mm
15:29 44.1 °F /  6.7 °C 28.0 °F /  -2.2 °C 30.26in /  1024.6hPa SW 8.0mph /  12.9km/h 14.0mph /  22.5km/h 53% 0.00in /  0mm
15:34 44.1 °F /  6.7 °C 28.5 °F /  -1.9 °C 30.27in /  1024.9hPa WSW 8.0mph /  12.9km/h 15.0mph /  24.1km/h 54% 0.00in /  0mm
15:39 44.2 °F /  6.8 °C 28.6 °F /  -1.9 °C 30.27in /  1024.9hPa SW 6.0mph /  9.7km/h 16.0mph /  25.7km/h 54% 0.00in /  0mm
15:44 44.0 °F /  6.7 °C 28.9 °F /  -1.7 °C 30.27in /  1024.9hPa SW 7.0mph /  11.3km/h 16.0mph /  25.7km/h 55% 0.00in /  0mm
15:49 43.8 °F /  6.6 °C 28.7 °F /  -1.8 °C 30.27in /  1024.9hPa WSW 7.0mph /  11.3km/h 12.0mph /  19.3km/h 55% 0.00in /  0mm
15:54 43.8 °F /  6.6 °C 29.1 °F /  -1.6 °C 30.27in /  1024.9hPa West 4.0mph /  6.4km/h 10.0mph /  16.1km/h 56% 0.00in /  0mm
15:59 44.5 °F /  6.9 °C 28.9 °F /  -1.7 °C 30.27in /  1024.9hPa WSW 3.0mph /  4.8km/h 8.0mph /  12.9km/h 54% 0.00in /  0mm
16:04 44.3 °F /  6.8 °C 28.7 °F /  -1.8 °C 30.27in /  1024.9hPa WSW 6.0mph /  9.7km/h 11.0mph /  17.7km/h 54% 0.00in /  0mm
16:09 44.3 °F /  6.8 °C 28.2 °F /  -2.1 °C 30.27in /  1024.9hPa SSW 7.0mph /  11.3km/h 11.0mph /  17.7km/h 53% 0.00in /  0mm
16:14 44.2 °F /  6.8 °C 28.6 °F /  -1.9 °C 30.27in /  1024.9hPa SW 6.0mph /  9.7km/h 11.0mph /  17.7km/h 54% 0.00in /  0mm
16:19 43.8 °F /  6.6 °C 28.2 °F /  -2.1 °C 30.27in /  1024.9hPa SW 6.0mph /  9.7km/h 11.0mph /  17.7km/h 54% 0.00in /  0mm
16:24 43.6 °F /  6.4 °C 28.5 °F /  -1.9 °C 30.27in /  1024.9hPa SW 5.0mph /  8km/h 11.0mph /  17.7km/h 55% 0.00in /  0mm
16:29 43.4 °F /  6.3 °C 28.7 °F /  -1.8 °C 30.28in /  1025.3hPa WSW 4.0mph /  6.4km/h 9.0mph /  14.5km/h 56% 0.00in /  0mm
16:34 43.3 °F /  6.3 °C 28.6 °F /  -1.9 °C 30.28in /  1025.3hPa WSW 6.0mph /  9.7km/h 9.0mph /  14.5km/h 56% 0.00in /  0mm
16:39 43.3 °F /  6.3 °C 28.6 °F /  -1.9 °C 30.28in /  1025.3hPa SW 7.0mph /  11.3km/h 10.0mph /  16.1km/h 56% 0.00in /  0mm
16:44 43.1 °F /  6.2 °C 28.5 °F /  -1.9 °C 30.28in /  1025.3hPa SW 5.0mph /  8km/h 12.0mph /  19.3km/h 56% 0.00in /  0mm
16:49 43.1 °F /  6.2 °C 28.5 °F /  -1.9 °C 30.28in /  1025.3hPa WSW 5.0mph /  8km/h 12.0mph /  19.3km/h 56% 0.00in /  0mm
16:54 43.0 °F /  6.1 °C 28.8 °F /  -1.8 °C 30.28in /  1025.3hPa SW 5.0mph /  8km/h 10.0mph /  16.1km/h 57% 0.00in /  0mm
16:59 42.8 °F /  6 °C 28.6 °F /  -1.9 °C 30.28in /  1025.3hPa SSW 3.0mph /  4.8km/h 9.0mph /  14.5km/h 57% 0.00in /  0mm
17:04 42.5 °F /  5.8 °C 28.8 °F /  -1.8 °C 30.28in /  1025.3hPa WSW 6.0mph /  9.7km/h 10.0mph /  16.1km/h 58% 0.00in /  0mm
17:09 42.0 °F /  5.6 °C 28.7 °F /  -1.8 °C 30.28in /  1025.3hPa WSW 4.0mph /  6.4km/h 8.0mph /  12.9km/h 59% 0.00in /  0mm
17:14 41.6 °F /  5.3 °C 28.7 °F /  -1.8 °C 30.28in /  1025.3hPa SSW 4.0mph /  6.4km/h 9.0mph /  14.5km/h 60% 0.00in /  0mm
17:19 41.0 °F /  5 °C 28.6 °F /  -1.9 °C 30.28in /  1025.3hPa SSW 4.0mph /  6.4km/h 9.0mph /  14.5km/h 61% 0.00in /  0mm
17:24 40.6 °F /  4.8 °C 28.6 °F /  -1.9 °C 30.28in /  1025.3hPa SW 4.0mph /  6.4km/h 10.0mph /  16.1km/h 62% 0.00in /  0mm
17:29 40.3 °F /  4.6 °C 28.7 °F /  -1.8 °C 30.28in /  1025.3hPa WSW 3.0mph /  4.8km/h 8.0mph /  12.9km/h 63% 0.00in /  0mm
17:34 40.1 °F /  4.5 °C 28.5 °F /  -1.9 °C 30.28in /  1025.3hPa WSW 4.0mph /  6.4km/h 6.0mph /  9.7km/h 63% 0.00in /  0mm
17:39 39.9 °F /  4.4 °C 28.7 °F /  -1.8 °C 30.28in /  1025.3hPa SW 5.0mph /  8km/h 6.0mph /  9.7km/h 64% 0.00in /  0mm
17:44 39.6 °F /  4.2 °C 28.4 °F /  -2 °C 30.28in /  1025.3hPa SSW 2.0mph /  3.2km/h 6.0mph /  9.7km/h 64% 0.00in /  0mm
17:49 39.4 °F /  4.1 °C 28.2 °F /  -2.1 °C 30.28in /  1025.3hPa SW 4.0mph /  6.4km/h 7.0mph /  11.3km/h 64% 0.00in /  0mm
17:54 39.2 °F /  4 °C 28.0 °F /  -2.2 °C 30.29in /  1025.6hPa SW 3.0mph /  4.8km/h 7.0mph /  11.3km/h 64% 0.00in /  0mm
17:59 39.1 °F /  3.9 °C 28.3 °F /  -2.1 °C 30.29in /  1025.6hPa SW 3.0mph /  4.8km/h 7.0mph /  11.3km/h 65% 0.00in /  0mm
18:04 38.9 °F /  3.8 °C 28.1 °F /  -2.2 °C 30.29in /  1025.6hPa SW 4.0mph /  6.4km/h 7.0mph /  11.3km/h 65% 0.00in /  0mm
18:09 38.7 °F /  3.7 °C 27.9 °F /  -2.3 °C 30.29in /  1025.6hPa WSW 4.0mph /  6.4km/h 4.0mph /  6.4km/h 65% 0.00in /  0mm
18:14 38.4 °F /  3.6 °C 28.0 °F /  -2.2 °C 30.29in /  1025.6hPa SW 1.0mph /  1.6km/h 5.0mph /  8km/h 66% 0.00in /  0mm
18:19 38.1 °F /  3.4 °C 27.7 °F /  -2.4 °C 30.29in /  1025.6hPa WSW 2.0mph /  3.2km/h 3.0mph /  4.8km/h 66% 0.00in /  0mm
18:24 37.8 °F /  3.2 °C 27.8 °F /  -2.3 °C 30.29in /  1025.6hPa SW 3.0mph /  4.8km/h 4.0mph /  6.4km/h 67% 0.00in /  0mm
18:29 37.6 °F /  3.1 °C 27.6 °F /  -2.4 °C 30.29in /  1025.6hPa WSW 1.0mph /  1.6km/h 4.0mph /  6.4km/h 67% 0.00in /  0mm
18:34 37.4 °F /  3 °C 27.4 °F /  -2.6 °C 30.29in /  1025.6hPa SW 1.0mph /  1.6km/h 3.0mph /  4.8km/h 67% 0.00in /  0mm
18:39 37.2 °F /  2.9 °C 27.6 °F /  -2.4 °C 30.30in /  1026hPa SW 1.0mph /  1.6km/h 3.0mph /  4.8km/h 68% 0.00in /  0mm
18:44 37.1 °F /  2.8 °C 27.5 °F /  -2.5 °C 30.29in /  1025.6hPa WSW 1.0mph /  1.6km/h 2.0mph /  3.2km/h 68% 0.00in /  0mm
18:49 36.9 °F /  2.7 °C 27.3 °F /  -2.6 °C 30.29in /  1025.6hPa SW 1.0mph /  1.6km/h 3.0mph /  4.8km/h 68% 0.00in /  0mm
18:54 36.8 °F /  2.7 °C 27.2 °F /  -2.7 °C 30.29in /  1025.6hPa SW 1.0mph /  1.6km/h 3.0mph /  4.8km/h 68% 0.00in /  0mm
18:59 36.8 °F /  2.7 °C 27.6 °F /  -2.4 °C 30.29in /  1025.6hPa SW 2.0mph /  3.2km/h 3.0mph /  4.8km/h 69% 0.00in /  0mm
19:04 36.7 °F /  2.6 °C 27.5 °F /  -2.5 °C 30.29in /  1025.6hPa SW 1.0mph /  1.6km/h 3.0mph /  4.8km/h 69% 0.00in /  0mm
19:09 36.6 °F /  2.6 °C 27.4 °F /  -2.6 °C 30.29in /  1025.6hPa SW 1.0mph /  1.6km/h 3.0mph /  4.8km/h 69% 0.00in /  0mm
19:14 36.5 °F /  2.5 °C 27.3 °F /  -2.6 °C 30.29in /  1025.6hPa SW 1.0mph /  1.6km/h 2.0mph /  3.2km/h 69% 0.00in /  0mm
19:19 36.4 °F /  2.4 °C 27.2 °F /  -2.7 °C 30.29in /  1025.6hPa SW 1.0mph /  1.6km/h 2.0mph /  3.2km/h 69% 0.00in /  0mm
19:24 36.2 °F /  2.3 °C 27.4 °F /  -2.6 °C 30.29in /  1025.6hPa Calm   2.0mph /  3.2km/h 70% 0.00in /  0mm
19:29 36.0 °F /  2.2 °C 27.2 °F /  -2.7 °C 30.29in /  1025.6hPa Calm   2.0mph /  3.2km/h 70% 0.00in /  0mm
19:34 35.9 °F /  2.2 °C 27.1 °F /  -2.7 °C 30.29in /  1025.6hPa Calm   1.0mph /  1.6km/h 70% 0.00in /  0mm
19:39 35.8 °F /  2.1 °C 27.0 °F /  -2.8 °C 30.29in /  1025.6hPa Calm     70% 0.00in /  0mm
19:44 35.6 °F /  2 °C 26.8 °F /  -2.9 °C 30.29in /  1025.6hPa Calm     70% 0.00in /  0mm
19:49 35.6 °F /  2 °C 27.1 °F /  -2.7 °C 30.29in /  1025.6hPa Calm     71% 0.00in /  0mm
19:54 35.3 °F /  1.8 °C 26.5 °F /  -3.1 °C 30.29in /  1025.6hPa Calm     70% 0.00in /  0mm
19:59 35.1 °F /  1.7 °C 26.6 °F /  -3 °C 30.29in /  1025.6hPa Calm     71% 0.00in /  0mm
20:04 34.8 °F /  1.6 °C 26.4 °F /  -3.1 °C 30.29in /  1025.6hPa Calm     71% 0.00in /  0mm
20:09 34.6 °F /  1.4 °C 26.5 °F /  -3.1 °C 30.29in /  1025.6hPa Calm     72% 0.00in /  0mm
20:14 34.4 °F /  1.3 °C 26.3 °F /  -3.2 °C 30.29in /  1025.6hPa Calm     72% 0.00in /  0mm
20:19 34.1 °F /  1.2 °C 26.3 °F /  -3.2 °C 30.29in /  1025.6hPa Calm     73% 0.00in /  0mm
20:24 34.0 °F /  1.1 °C 26.3 °F /  -3.2 °C 30.29in /  1025.6hPa Calm     73% 0.00in /  0mm
20:29 33.7 °F /  0.9 °C 26.3 °F /  -3.2 °C 30.29in /  1025.6hPa Calm     74% 0.00in /  0mm
20:34 33.6 °F /  0.9 °C 26.2 °F /  -3.2 °C 30.29in /  1025.6hPa Calm     74% 0.00in /  0mm
20:39 33.5 °F /  0.8 °C 26.4 °F /  -3.1 °C 30.29in /  1025.6hPa Calm     75% 0.00in /  0mm
20:44 33.5 °F /  0.8 °C 26.4 °F /  -3.1 °C 30.29in /  1025.6hPa Calm     75% 0.00in /  0mm
20:49 33.3 °F /  0.7 °C 26.2 °F /  -3.2 °C 30.29in /  1025.6hPa Calm     75% 0.00in /  0mm
20:54 33.1 °F /  0.6 °C 26.4 °F /  -3.1 °C 30.29in /  1025.6hPa Calm     76% 0.00in /  0mm
20:59 33.1 °F /  0.6 °C 26.4 °F /  -3.1 °C 30.29in /  1025.6hPa Calm     76% 0.00in /  0mm
21:04 33.0 °F /  0.6 °C 26.3 °F /  -3.2 °C 30.29in /  1025.6hPa Calm     76% 0.00in /  0mm
21:09 32.9 °F /  0.5 °C 26.2 °F /  -3.2 °C 30.29in /  1025.6hPa Calm     76% 0.00in /  0mm
21:14 32.8 °F /  0.4 °C 26.1 °F /  -3.3 °C 30.29in /  1025.6hPa Calm     76% 0.00in /  0mm
21:19 32.8 °F /  0.4 °C 26.1 °F /  -3.3 °C 30.29in /  1025.6hPa Calm     76% 0.00in /  0mm
21:24 33.1 °F /  0.6 °C 26.4 °F /  -3.1 °C 30.29in /  1025.6hPa Calm     76% 0.00in /  0mm
21:29 33.5 °F /  0.8 °C 26.4 °F /  -3.1 °C 30.29in /  1025.6hPa Calm     75% 0.00in /  0mm
21:34 34.1 °F /  1.2 °C 26.3 °F /  -3.2 °C 30.29in /  1025.6hPa Calm     73% 0.00in /  0mm
21:39 34.4 °F /  1.3 °C 26.6 °F /  -3 °C 30.29in /  1025.6hPa Calm     73% 0.00in /  0mm
21:44 34.5 °F /  1.4 °C 26.4 °F /  -3.1 °C 30.29in /  1025.6hPa Calm     72% 0.00in /  0mm
21:49 34.0 °F /  1.1 °C 25.9 °F /  -3.4 °C 30.29in /  1025.6hPa Calm     72% 0.00in /  0mm
21:54 34.2 °F /  1.2 °C 26.1 °F /  -3.3 °C 30.29in /  1025.6hPa Calm     72% 0.00in /  0mm
21:59 34.3 °F /  1.3 °C 26.2 °F /  -3.2 °C 30.29in /  1025.6hPa Calm     72% 0.00in /  0mm
22:04 33.9 °F /  1.1 °C 26.2 °F /  -3.2 °C 30.29in /  1025.6hPa Calm     73% 0.00in /  0mm
22:09 33.5 °F /  0.8 °C 26.1 °F /  -3.3 °C 30.29in /  1025.6hPa Calm     74% 0.00in /  0mm
22:14 33.5 °F /  0.8 °C 26.1 °F /  -3.3 °C 30.29in /  1025.6hPa Calm     74% 0.00in /  0mm
22:19 33.8 °F /  1 °C 26.4 °F /  -3.1 °C 30.29in /  1025.6hPa Calm     74% 0.00in /  0mm
22:24 34.3 °F /  1.3 °C 26.5 °F /  -3.1 °C 30.29in /  1025.6hPa Calm     73% 0.00in /  0mm
22:29 34.4 °F /  1.3 °C 26.6 °F /  -3 °C 30.28in /  1025.3hPa Calm     73% 0.00in /  0mm
22:34 34.6 °F /  1.4 °C 26.5 °F /  -3.1 °C 30.29in /  1025.6hPa Calm     72% 0.00in /  0mm
22:39 34.6 °F /  1.4 °C 26.5 °F /  -3.1 °C 30.28in /  1025.3hPa Calm     72% 0.00in /  0mm
22:44 34.5 °F /  1.4 °C 26.7 °F /  -2.9 °C 30.28in /  1025.3hPa Calm     73% 0.00in /  0mm
22:49 34.6 °F /  1.4 °C 26.8 °F /  -2.9 °C 30.28in /  1025.3hPa Calm     73% 0.00in /  0mm
22:54 34.5 °F /  1.4 °C 26.7 °F /  -2.9 °C 30.28in /  1025.3hPa Calm     73% 0.00in /  0mm
22:59 34.8 °F /  1.6 °C 26.7 °F /  -2.9 °C 30.28in /  1025.3hPa Calm     72% 0.00in /  0mm
23:04 35.2 °F /  1.8 °C 26.7 °F /  -2.9 °C 30.28in /  1025.3hPa Calm     71% 0.00in /  0mm
23:09 34.9 °F /  1.6 °C 26.4 °F /  -3.1 °C 30.28in /  1025.3hPa Calm     71% 0.00in /  0mm
23:14 34.6 °F /  1.4 °C 26.8 °F /  -2.9 °C 30.28in /  1025.3hPa Calm     73% 0.00in /  0mm
23:19 34.8 °F /  1.6 °C 26.7 °F /  -2.9 °C 30.28in /  1025.3hPa Calm     72% 0.00in /  0mm
23:24 35.2 °F /  1.8 °C 26.7 °F /  -2.9 °C 30.28in /  1025.3hPa Calm     71% 0.00in /  0mm
23:29 35.4 °F /  1.9 °C 27.3 °F /  -2.6 °C 30.29in /  1025.6hPa Calm     72% 0.00in /  0mm
23:34 35.6 °F /  2 °C 27.1 °F /  -2.7 °C 30.29in /  1025.6hPa Calm     71% 0.00in /  0mm
23:39 35.4 °F /  1.9 °C 26.9 °F /  -2.8 °C 30.29in /  1025.6hPa Calm     71% 0.00in /  0mm
23:44 35.1 °F /  1.7 °C 27.0 °F /  -2.8 °C 30.29in /  1025.6hPa Calm     72% 0.00in /  0mm
23:49 35.1 °F /  1.7 °C 27.0 °F /  -2.8 °C 30.29in /  1025.6hPa Calm     72% 0.00in /  0mm
23:54 35.2 °F /  1.8 °C 27.1 °F /  -2.7 °C 30.29in /  1025.6hPa Calm     72% 0.00in /  0mm
23:59 35.4 °F /  1.9 °C 26.9 °F /  -2.8 °C 30.29in /  1025.6hPa Calm     71% 0.00in /  0mm
Buffalo, New York, USA
Compliments of Weather Underground - 2.5 mb